PWSweather.com
Personal Weather Stations
Station Observations
DW6359
Southwest Cambria, Cambria, WI 53923

Southwest CambriaCambria, WI 53923

Lat: 43.541194, Lon: -89.11275

Elevation: 945

Station Type: Davis Vantage Pro2

http://home.centurytel.net/weathercambria/wxcambria.html

Latest ConditionsUpdated 10:30:14 PM CDT Tuesday, Mar 26, 2019
Currently Today's Max Today's Min Today's Average
Temperature 38.4°F3.6°C 48.4°F9.1°C 22.1°F-5.5°C 36.1°F2.3°C
Dew Point 20.4°F-6.4°C 25.1°F-3.8°C 13.8°F-10.1°C 19.5°F-6.9°C
Winds 4.0 mph S6.4 kmh S 9.0 mph -14.5 kmh - - 1.5 mph 2.4 kmh
Wind Gusts -- 9.0 mph14.5 kmh - -
Humidity 48% 85% 26% 54%
Pressure 30.41 in1029.8 mb 30.57 in1035.2 mb 30.40 in1029.5 mb -
Hour Temp Dew Point Humidity Winds Wind Gusts Pressure Precip Precip Rate Daily Precip Total
10:30 PM 38.4°F3.6°C 20.4°F-6.4°C 48% 4.0 mph S6.4 kmh S -- 30.41 in1029.8 mb 0.00 in0.0 mm 0.00 in0.0 mm 0.00 in0.0 mm
10:25 PM 38.5°F3.6°C 20.0°F-6.7°C 47% 4.0 mph S6.4 kmh S -- 30.41 in1029.8 mb 0.00 in0.0 mm 0.00 in0.0 mm 0.00 in0.0 mm
10:20 PM 38.7°F3.7°C 20.2°F-6.6°C 47% 3.0 mph S4.8 kmh S -- 30.42 in1030.1 mb 0.00 in0.0 mm 0.00 in0.0 mm 0.00 in0.0 mm
10:15 PM 38.7°F3.7°C 20.2°F-6.6°C 47% 6.0 mph S9.7 kmh S -- 30.41 in1029.8 mb 0.00 in0.0 mm 0.00 in0.0 mm 0.00 in0.0 mm
10:10 PM 38.8°F3.8°C 20.3°F-6.5°C 47% 5.0 mph S8.0 kmh S -- 30.42 in1030.1 mb 0.00 in0.0 mm 0.00 in0.0 mm 0.00 in0.0 mm
10:05 PM 38.8°F3.8°C 20.3°F-6.5°C 47% 1.0 mph S1.6 kmh S 7.0 mph11.3 kmh 30.42 in1030.1 mb 0.00 in0.0 mm 0.00 in0.0 mm 0.00 in0.0 mm
10:00 PM 38.9°F3.8°C 20.4°F-6.4°C 47% 3.0 mph S4.8 kmh S 7.0 mph11.3 kmh 30.42 in1030.1 mb 0.00 in0.0 mm 0.00 in0.0 mm 0.00 in0.0 mm
09:55 PM 38.9°F3.8°C 20.4°F-6.4°C 47% 6.0 mph S9.7 kmh S -- 30.42 in1030.1 mb 0.00 in0.0 mm 0.00 in0.0 mm 0.00 in0.0 mm
09:50 PM 39.0°F3.9°C 20.5°F-6.4°C 47% 2.0 mph S3.2 kmh S -- 30.42 in1030.1 mb 0.00 in0.0 mm 0.00 in0.0 mm 0.00 in0.0 mm
09:45 PM 39.1°F3.9°C 20.6°F-6.3°C 47% 5.0 mph S8.0 kmh S -- 30.42 in1030.1 mb 0.00 in0.0 mm 0.00 in0.0 mm 0.00 in0.0 mm
09:40 PM 39.1°F3.9°C 20.6°F-6.3°C 47% 2.0 mph S3.2 kmh S -- 30.42 in1030.1 mb 0.00 in0.0 mm 0.00 in0.0 mm 0.00 in0.0 mm
09:35 PM 39.0°F3.9°C 20.5°F-6.4°C 47% 4.0 mph S6.4 kmh S -- 30.41 in1029.8 mb 0.00 in0.0 mm 0.00 in0.0 mm 0.00 in0.0 mm
09:30 PM 39.1°F3.9°C 20.6°F-6.3°C 47% 4.0 mph S6.4 kmh S -- 30.42 in1030.1 mb 0.00 in0.0 mm 0.00 in0.0 mm 0.00 in0.0 mm
09:25 PM 39.2°F4.0°C 20.7°F-6.3°C 47% 3.0 mph S4.8 kmh S -- 30.42 in1030.1 mb 0.00 in0.0 mm 0.00 in0.0 mm 0.00 in0.0 mm
09:20 PM 39.2°F4.0°C 20.7°F-6.3°C 47% 4.0 mph S6.4 kmh S -- 30.41 in1029.8 mb 0.00 in0.0 mm 0.00 in0.0 mm 0.00 in0.0 mm
09:15 PM 39.4°F4.1°C 20.9°F-6.2°C 47% 1.0 mph S1.6 kmh S 8.0 mph12.9 kmh 30.42 in1030.1 mb 0.00 in0.0 mm 0.00 in0.0 mm 0.00 in0.0 mm
09:10 PM 39.6°F4.2°C 21.0°F-6.1°C 47% 2.0 mph S3.2 kmh S 8.0 mph12.9 kmh 30.42 in1030.1 mb 0.00 in0.0 mm 0.00 in0.0 mm 0.00 in0.0 mm
09:05 PM 39.7°F4.3°C 20.6°F-6.3°C 46% 4.0 mph S6.4 kmh S -- 30.42 in1030.1 mb 0.00 in0.0 mm 0.00 in0.0 mm 0.00 in0.0 mm
09:00 PM 39.8°F4.3°C 20.7°F-6.3°C 46% 5.0 mph S8.0 kmh S -- 30.42 in1030.1 mb 0.00 in0.0 mm 0.00 in0.0 mm 0.00 in0.0 mm
08:55 PM 39.9°F4.4°C 20.8°F-6.2°C 46% 1.0 mph S1.6 kmh S -- 30.42 in1030.1 mb 0.00 in0.0 mm 0.00 in0.0 mm 0.00 in0.0 mm
08:50 PM 40.1°F4.5°C 21.0°F-6.1°C 46% 3.0 mph S4.8 kmh S -- 30.41 in1029.8 mb 0.00 in0.0 mm 0.00 in0.0 mm 0.00 in0.0 mm
08:45 PM 40.2°F4.6°C 20.6°F-6.3°C 45% 4.0 mph S6.4 kmh S -- 30.41 in1029.8 mb 0.00 in0.0 mm 0.00 in0.0 mm 0.00 in0.0 mm
08:40 PM 40.4°F4.7°C 20.8°F-6.2°C 45% 5.0 mph S8.0 kmh S -- 30.41 in1029.8 mb 0.00 in0.0 mm 0.00 in0.0 mm 0.00 in0.0 mm
08:35 PM 40.5°F4.7°C 20.8°F-6.2°C 45% 6.0 mph S9.7 kmh S -- 30.41 in1029.8 mb 0.00 in0.0 mm 0.00 in0.0 mm 0.00 in0.0 mm
08:30 PM 40.6°F4.8°C 20.4°F-6.4°C 44% 3.0 mph SSE4.8 kmh SSE -- 30.41 in1029.8 mb 0.00 in0.0 mm 0.00 in0.0 mm 0.00 in0.0 mm
08:25 PM 40.6°F4.8°C 20.4°F-6.4°C 44% 6.0 mph SSE9.7 kmh SSE 6.0 mph9.7 kmh 30.41 in1029.8 mb 0.00 in0.0 mm 0.00 in0.0 mm 0.00 in0.0 mm
08:20 PM 40.7°F4.8°C 20.5°F-6.4°C 44% 4.0 mph SSE6.4 kmh SSE 6.0 mph9.7 kmh 30.41 in1029.8 mb 0.00 in0.0 mm 0.00 in0.0 mm 0.00 in0.0 mm
08:15 PM 40.8°F4.9°C 20.6°F-6.3°C 44% 5.0 mph S8.0 kmh S -- 30.41 in1029.8 mb 0.00 in0.0 mm 0.00 in0.0 mm 0.00 in0.0 mm
08:10 PM 41.0°F5.0°C 20.8°F-6.2°C 44% 5.0 mph SSE8.0 kmh SSE -- 30.41 in1029.8 mb 0.00 in0.0 mm 0.00 in0.0 mm 0.00 in0.0 mm
08:05 PM 41.3°F5.2°C 20.5°F-6.4°C 43% 6.0 mph SSE9.7 kmh SSE -- 30.41 in1029.8 mb 0.00 in0.0 mm 0.00 in0.0 mm 0.00 in0.0 mm
08:00 PM 41.6°F5.3°C 20.8°F-6.2°C 43% 3.0 mph SSE4.8 kmh SSE -- 30.41 in1029.8 mb 0.00 in0.0 mm 0.00 in0.0 mm 0.00 in0.0 mm
07:55 PM 41.8°F5.4°C 20.4°F-6.4°C 42% 2.0 mph SSE3.2 kmh SSE -- 30.41 in1029.8 mb 0.00 in0.0 mm 0.00 in0.0 mm 0.00 in0.0 mm
07:50 PM 42.0°F5.6°C 21.1°F-6.1°C 43% 4.0 mph SSE6.4 kmh SSE -- 30.41 in1029.8 mb 0.00 in0.0 mm 0.00 in0.0 mm 0.00 in0.0 mm
07:45 PM 42.3°F5.7°C 20.9°F-6.2°C 42% 2.0 mph S3.2 kmh S -- 30.40 in1029.5 mb 0.00 in0.0 mm 0.00 in0.0 mm 0.00 in0.0 mm
07:40 PM 42.7°F5.9°C 21.2°F-6.0°C 42% 4.0 mph SSE6.4 kmh SSE -- 30.40 in1029.5 mb 0.00 in0.0 mm 0.00 in0.0 mm 0.00 in0.0 mm
07:35 PM 43.0°F6.1°C 20.9°F-6.2°C 41% 4.0 mph SSE6.4 kmh SSE 8.0 mph12.9 kmh 30.41 in1029.8 mb 0.00 in0.0 mm 0.00 in0.0 mm 0.00 in0.0 mm
07:30 PM 43.3°F6.3°C 21.2°F-6.0°C 41% 3.0 mph SSE4.8 kmh SSE 8.0 mph12.9 kmh 30.41 in1029.8 mb 0.00 in0.0 mm 0.00 in0.0 mm 0.00 in0.0 mm
07:25 PM 43.6°F6.4°C 20.9°F-6.2°C 40% 6.0 mph S9.7 kmh S -- 30.41 in1029.8 mb 0.00 in0.0 mm 0.00 in0.0 mm 0.00 in0.0 mm
07:20 PM 43.9°F6.6°C 21.2°F-6.0°C 40% 3.0 mph S4.8 kmh S -- 30.41 in1029.8 mb 0.00 in0.0 mm 0.00 in0.0 mm 0.00 in0.0 mm
07:15 PM 44.3°F6.8°C 21.5°F-5.8°C 40% 2.0 mph S3.2 kmh S -- 30.41 in1029.8 mb 0.00 in0.0 mm 0.00 in0.0 mm 0.00 in0.0 mm
07:10 PM 44.6°F7.0°C 21.2°F-6.0°C 39% 6.0 mph S9.7 kmh S -- 30.42 in1030.1 mb 0.00 in0.0 mm 0.00 in0.0 mm 0.00 in0.0 mm
07:05 PM 45.0°F7.2°C 21.5°F-5.8°C 39% Calm Calm -- 30.42 in1030.1 mb 0.00 in0.0 mm 0.00 in0.0 mm 0.00 in0.0 mm
07:00 PM 45.5°F7.5°C 22.0°F-5.6°C 39% 4.0 mph S6.4 kmh S -- 30.42 in1030.1 mb 0.00 in0.0 mm 0.00 in0.0 mm 0.00 in0.0 mm
06:55 PM 45.9°F7.7°C 21.7°F-5.7°C 38% 5.0 mph S8.0 kmh S -- 30.42 in1030.1 mb 0.00 in0.0 mm 0.00 in0.0 mm 0.00 in0.0 mm
06:50 PM 46.4°F8.0°C 22.8°F-5.1°C 39% 2.0 mph S3.2 kmh S -- 30.42 in1030.1 mb 0.00 in0.0 mm 0.00 in0.0 mm 0.00 in0.0 mm
06:45 PM 46.7°F8.2°C 22.5°F-5.3°C 38% 6.0 mph SE9.7 kmh SE 1.0 mph1.6 kmh 30.42 in1030.1 mb 0.00 in0.0 mm 0.00 in0.0 mm 0.00 in0.0 mm
06:40 PM 47.0°F8.3°C 23.3°F-4.8°C 39% Calm Calm 1.0 mph1.6 kmh 30.42 in1030.1 mb 0.00 in0.0 mm 0.00 in0.0 mm 0.00 in0.0 mm
06:35 PM 47.2°F8.4°C 22.3°F-5.4°C 37% Calm Calm -- 30.43 in1030.5 mb 0.00 in0.0 mm 0.00 in0.0 mm 0.00 in0.0 mm
06:30 PM 47.4°F8.6°C 22.4°F-5.3°C 37% Calm Calm -- 30.43 in1030.5 mb 0.00 in0.0 mm 0.00 in0.0 mm 0.00 in0.0 mm
06:25 PM 47.6°F8.7°C 22.6°F-5.2°C 37% Calm Calm -- 30.43 in1030.5 mb 0.00 in0.0 mm 0.00 in0.0 mm 0.00 in0.0 mm
06:20 PM 47.5°F8.6°C 22.5°F-5.3°C 37% Calm Calm -- 30.43 in1030.5 mb 0.00 in0.0 mm 0.00 in0.0 mm 0.00 in0.0 mm
06:15 PM 47.5°F8.6°C 21.9°F-5.6°C 36% 1.0 mph S1.6 kmh S -- 30.43 in1030.5 mb 0.00 in0.0 mm 0.00 in0.0 mm 0.00 in0.0 mm
06:10 PM 47.6°F8.7°C 22.6°F-5.2°C 37% Calm Calm -- 30.43 in1030.5 mb 0.00 in0.0 mm 0.00 in0.0 mm 0.00 in0.0 mm
06:05 PM 47.6°F8.7°C 22.0°F-5.6°C 36% 2.0 mph S3.2 kmh S -- 30.43 in1030.5 mb 0.00 in0.0 mm 0.00 in0.0 mm 0.00 in0.0 mm
06:00 PM 47.6°F8.7°C 22.6°F-5.2°C 37% 7.0 mph SSW11.3 kmh SSW -- 30.43 in1030.5 mb 0.00 in0.0 mm 0.00 in0.0 mm 0.00 in0.0 mm
05:55 PM 48.0°F8.9°C 23.0°F-5.0°C 37% 7.0 mph SSE11.3 kmh SSE 9.0 mph14.5 kmh 30.44 in1030.8 mb 0.00 in0.0 mm 0.00 in0.0 mm 0.00 in0.0 mm
05:50 PM 47.8°F8.8°C 23.4°F-4.8°C 38% 2.0 mph S3.2 kmh S 9.0 mph14.5 kmh 30.44 in1030.8 mb 0.00 in0.0 mm 0.00 in0.0 mm 0.00 in0.0 mm
05:45 PM 47.8°F8.8°C 22.2°F-5.4°C 36% 5.0 mph S8.0 kmh S -- 30.44 in1030.8 mb 0.00 in0.0 mm 0.00 in0.0 mm 0.00 in0.0 mm
05:40 PM 47.8°F8.8°C 22.8°F-5.1°C 37% 3.0 mph S4.8 kmh S -- 30.44 in1030.8 mb 0.00 in0.0 mm 0.00 in0.0 mm 0.00 in0.0 mm
05:35 PM 47.6°F8.7°C 22.6°F-5.2°C 37% 4.0 mph S6.4 kmh S -- 30.44 in1030.8 mb 0.00 in0.0 mm 0.00 in0.0 mm 0.00 in0.0 mm
05:30 PM 47.8°F8.8°C 22.2°F-5.4°C 36% 4.0 mph S6.4 kmh S -- 30.44 in1030.8 mb 0.00 in0.0 mm 0.00 in0.0 mm 0.00 in0.0 mm
05:25 PM 48.0°F8.9°C 22.3°F-5.4°C 36% 7.0 mph SSW11.3 kmh SSW -- 30.44 in1030.8 mb 0.00 in0.0 mm 0.00 in0.0 mm 0.00 in0.0 mm
05:20 PM 48.0°F8.9°C 23.0°F-5.0°C 37% 7.0 mph SSW11.3 kmh SSW -- 30.44 in1030.8 mb 0.00 in0.0 mm 0.00 in0.0 mm 0.00 in0.0 mm
05:15 PM 48.4°F9.1°C 22.7°F-5.2°C 36% 7.0 mph SSW11.3 kmh SSW -- 30.45 in1031.2 mb 0.00 in0.0 mm 0.00 in0.0 mm 0.00 in0.0 mm
05:10 PM 48.1°F8.9°C 23.1°F-4.9°C 37% Calm Calm -- 30.45 in1031.2 mb 0.00 in0.0 mm 0.00 in0.0 mm 0.00 in0.0 mm
05:05 PM 47.5°F8.6°C 22.5°F-5.3°C 37% 2.0 mph SSE3.2 kmh SSE 8.0 mph12.9 kmh 30.45 in1031.2 mb 0.00 in0.0 mm 0.00 in0.0 mm 0.00 in0.0 mm
05:00 PM 47.4°F8.6°C 21.8°F-5.7°C 36% 5.0 mph SSW8.0 kmh SSW 8.0 mph12.9 kmh 30.45 in1031.2 mb 0.00 in0.0 mm 0.00 in0.0 mm 0.00 in0.0 mm
04:55 PM 47.0°F8.3°C 22.1°F-5.5°C 37% 4.0 mph S6.4 kmh S -- 30.45 in1031.2 mb 0.00 in0.0 mm 0.00 in0.0 mm 0.00 in0.0 mm
04:50 PM 47.0°F8.3°C 20.8°F-6.2°C 35% 4.0 mph SSE6.4 kmh SSE -- 30.46 in1031.5 mb 0.00 in0.0 mm 0.00 in0.0 mm 0.00 in0.0 mm
04:45 PM 46.9°F8.3°C 21.4°F-5.9°C 36% 3.0 mph S4.8 kmh S -- 30.46 in1031.5 mb 0.00 in0.0 mm 0.00 in0.0 mm 0.00 in0.0 mm
04:40 PM 47.0°F8.3°C 20.8°F-6.2°C 35% 5.0 mph S8.0 kmh S -- 30.46 in1031.5 mb 0.00 in0.0 mm 0.00 in0.0 mm 0.00 in0.0 mm
04:35 PM 46.9°F8.3°C 20.7°F-6.3°C 35% Calm Calm -- 30.46 in1031.5 mb 0.00 in0.0 mm 0.00 in0.0 mm 0.00 in0.0 mm
04:30 PM 46.9°F8.3°C 22.0°F-5.6°C 37% Calm Calm -- 30.46 in1031.5 mb 0.00 in0.0 mm 0.00 in0.0 mm 0.00 in0.0 mm
04:25 PM 46.9°F8.3°C 21.4°F-5.9°C 36% 4.0 mph SW6.4 kmh SW -- 30.47 in1031.8 mb 0.00 in0.0 mm 0.00 in0.0 mm 0.00 in0.0 mm
04:20 PM 46.9°F8.3°C 20.7°F-6.3°C 35% 6.0 mph S9.7 kmh S -- 30.47 in1031.8 mb 0.00 in0.0 mm 0.00 in0.0 mm 0.00 in0.0 mm
04:15 PM 47.2°F8.4°C 21.0°F-6.1°C 35% 6.0 mph SW9.7 kmh SW 8.0 mph12.9 kmh 30.47 in1031.8 mb 0.00 in0.0 mm 0.00 in0.0 mm 0.00 in0.0 mm
04:10 PM 47.3°F8.5°C 21.0°F-6.1°C 35% 4.0 mph SSW6.4 kmh SSW 8.0 mph12.9 kmh 30.47 in1031.8 mb 0.00 in0.0 mm 0.00 in0.0 mm 0.00 in0.0 mm
04:05 PM 47.2°F8.4°C 20.3°F-6.5°C 34% 3.0 mph SSW4.8 kmh SSW -- 30.47 in1031.8 mb 0.00 in0.0 mm 0.00 in0.0 mm 0.00 in0.0 mm
04:00 PM 47.3°F8.5°C 19.7°F-6.8°C 33% 4.0 mph SSW6.4 kmh SSW -- 30.47 in1031.8 mb 0.00 in0.0 mm 0.00 in0.0 mm 0.00 in0.0 mm
03:55 PM 47.5°F8.6°C 19.1°F-7.2°C 32% 2.0 mph SSW3.2 kmh SSW -- 30.47 in1031.8 mb 0.00 in0.0 mm 0.00 in0.0 mm 0.00 in0.0 mm
03:50 PM 47.6°F8.7°C 19.2°F-7.1°C 32% 3.0 mph SSW4.8 kmh SSW -- 30.47 in1031.8 mb 0.00 in0.0 mm 0.00 in0.0 mm 0.00 in0.0 mm
03:45 PM 47.8°F8.8°C 19.4°F-7.0°C 32% 3.0 mph SSW4.8 kmh SSW -- 30.47 in1031.8 mb 0.00 in0.0 mm 0.00 in0.0 mm 0.00 in0.0 mm
03:40 PM 47.8°F8.8°C 20.8°F-6.2°C 34% 2.0 mph SW3.2 kmh SW -- 30.47 in1031.8 mb 0.00 in0.0 mm 0.00 in0.0 mm 0.00 in0.0 mm
03:35 PM 47.5°F8.6°C 19.1°F-7.2°C 32% Calm Calm -- 30.47 in1031.8 mb 0.00 in0.0 mm 0.00 in0.0 mm 0.00 in0.0 mm
03:30 PM 47.4°F8.6°C 19.8°F-6.8°C 33% 9.0 mph WSW14.5 kmh WSW -- 30.47 in1031.8 mb 0.00 in0.0 mm 0.00 in0.0 mm 0.00 in0.0 mm
03:25 PM 47.3°F8.5°C 19.7°F-6.8°C 33% 5.0 mph SW8.0 kmh SW 9.0 mph14.5 kmh 30.47 in1031.8 mb 0.00 in0.0 mm 0.00 in0.0 mm 0.00 in0.0 mm
03:20 PM 47.5°F8.6°C 18.4°F-7.6°C 31% 4.0 mph SW6.4 kmh SW 9.0 mph14.5 kmh 30.47 in1031.8 mb 0.00 in0.0 mm 0.00 in0.0 mm 0.00 in0.0 mm
03:15 PM 47.6°F8.7°C 19.2°F-7.1°C 32% 7.0 mph SSW11.3 kmh SSW -- 30.48 in1032.2 mb 0.00 in0.0 mm 0.00 in0.0 mm 0.00 in0.0 mm
03:10 PM 47.2°F8.4°C 17.4°F-8.1°C 30% 2.0 mph SSE3.2 kmh SSE -- 30.48 in1032.2 mb 0.00 in0.0 mm 0.00 in0.0 mm 0.00 in0.0 mm
03:05 PM 46.9°F8.3°C 17.1°F-8.3°C 30% Calm Calm -- 30.48 in1032.2 mb 0.00 in0.0 mm 0.00 in0.0 mm 0.00 in0.0 mm
03:00 PM 47.2°F8.4°C 16.6°F-8.6°C 29% 2.0 mph SW3.2 kmh SW -- 30.48 in1032.2 mb 0.00 in0.0 mm 0.00 in0.0 mm 0.00 in0.0 mm
02:55 PM 47.7°F8.7°C 17.0°F-8.3°C 29% 3.0 mph SW4.8 kmh SW -- 30.48 in1032.2 mb 0.00 in0.0 mm 0.00 in0.0 mm 0.00 in0.0 mm
02:50 PM 47.4°F8.6°C 16.0°F-8.9°C 28% Calm Calm -- 30.48 in1032.2 mb 0.00 in0.0 mm 0.00 in0.0 mm 0.00 in0.0 mm
02:45 PM 47.5°F8.6°C 16.0°F-8.9°C 28% 5.0 mph SW8.0 kmh SW -- 30.48 in1032.2 mb 0.00 in0.0 mm 0.00 in0.0 mm 0.00 in0.0 mm
02:40 PM 47.0°F8.3°C 16.4°F-8.7°C 29% Calm Calm -- 30.49 in1032.5 mb 0.00 in0.0 mm 0.00 in0.0 mm 0.00 in0.0 mm
02:35 PM 46.9°F8.3°C 15.5°F-9.2°C 28% Calm Calm 7.0 mph11.3 kmh 30.49 in1032.5 mb 0.00 in0.0 mm 0.00 in0.0 mm 0.00 in0.0 mm
02:30 PM 46.9°F8.3°C 13.8°F-10.1°C 26% 2.0 mph SW3.2 kmh SW 7.0 mph11.3 kmh 30.49 in1032.5 mb 0.00 in0.0 mm 0.00 in0.0 mm 0.00 in0.0 mm
02:25 PM 46.6°F8.1°C 15.3°F-9.3°C 28% Calm Calm -- 30.49 in1032.5 mb 0.00 in0.0 mm 0.00 in0.0 mm 0.00 in0.0 mm
02:20 PM 46.9°F8.3°C 14.7°F-9.6°C 27% 4.0 mph SW6.4 kmh SW -- 30.50 in1032.8 mb 0.00 in0.0 mm 0.00 in0.0 mm 0.00 in0.0 mm
02:15 PM 46.8°F8.2°C 16.2°F-8.8°C 29% 1.0 mph SW1.6 kmh SW -- 30.50 in1032.8 mb 0.00 in0.0 mm 0.00 in0.0 mm 0.00 in0.0 mm
02:10 PM 46.7°F8.2°C 15.3°F-9.3°C 28% 8.0 mph SE12.9 kmh SE -- 30.50 in1032.8 mb 0.00 in0.0 mm 0.00 in0.0 mm 0.00 in0.0 mm
02:05 PM 46.6°F8.1°C 16.1°F-8.8°C 29% 4.0 mph SW6.4 kmh SW -- 30.51 in1033.2 mb 0.00 in0.0 mm 0.00 in0.0 mm 0.00 in0.0 mm
02:00 PM 46.3°F7.9°C 15.8°F-9.0°C 29% 1.0 mph SSW1.6 kmh SSW -- 30.51 in1033.2 mb 0.00 in0.0 mm 0.00 in0.0 mm 0.00 in0.0 mm
01:55 PM 46.1°F7.8°C 16.4°F-8.7°C 30% 5.0 mph SW8.0 kmh SW -- 30.51 in1033.2 mb 0.00 in0.0 mm 0.00 in0.0 mm 0.00 in0.0 mm
01:50 PM 45.9°F7.7°C 17.0°F-8.3°C 31% 1.0 mph SSW1.6 kmh SSW -- 30.51 in1033.2 mb 0.00 in0.0 mm 0.00 in0.0 mm 0.00 in0.0 mm
01:45 PM 45.7°F7.6°C 16.8°F-8.4°C 31% 4.0 mph SW6.4 kmh SW 7.0 mph11.3 kmh 30.51 in1033.2 mb 0.00 in0.0 mm 0.00 in0.0 mm 0.00 in0.0 mm
01:40 PM 45.9°F7.7°C 17.0°F-8.3°C 31% 5.0 mph SW8.0 kmh SW 7.0 mph11.3 kmh 30.52 in1033.5 mb 0.00 in0.0 mm 0.00 in0.0 mm 0.00 in0.0 mm
01:35 PM 45.9°F7.7°C 17.0°F-8.3°C 31% Calm Calm -- 30.52 in1033.5 mb 0.00 in0.0 mm 0.00 in0.0 mm 0.00 in0.0 mm
01:30 PM 45.7°F7.6°C 17.5°F-8.1°C 32% Calm Calm -- 30.52 in1033.5 mb 0.00 in0.0 mm 0.00 in0.0 mm 0.00 in0.0 mm
01:25 PM 45.7°F7.6°C 17.5°F-8.1°C 32% 4.0 mph SSW6.4 kmh SSW -- 30.52 in1033.5 mb 0.00 in0.0 mm 0.00 in0.0 mm 0.00 in0.0 mm
01:20 PM 45.7°F7.6°C 17.5°F-8.1°C 32% 3.0 mph SW4.8 kmh SW -- 30.52 in1033.5 mb 0.00 in0.0 mm 0.00 in0.0 mm 0.00 in0.0 mm
01:15 PM 45.7°F7.6°C 18.3°F-7.6°C 33% 2.0 mph SW3.2 kmh SW -- 30.52 in1033.5 mb 0.00 in0.0 mm 0.00 in0.0 mm 0.00 in0.0 mm
01:10 PM 45.8°F7.7°C 17.6°F-8.0°C 32% Calm Calm -- 30.52 in1033.5 mb 0.00 in0.0 mm 0.00 in0.0 mm 0.00 in0.0 mm
01:05 PM 45.6°F7.6°C 18.2°F-7.7°C 33% 2.0 mph SW3.2 kmh SW -- 30.53 in1033.9 mb 0.00 in0.0 mm 0.00 in0.0 mm 0.00 in0.0 mm
01:00 PM 45.7°F7.6°C 18.3°F-7.6°C 33% Calm Calm -- 30.53 in1033.9 mb 0.00 in0.0 mm 0.00 in0.0 mm 0.00 in0.0 mm
12:55 PM 45.5°F7.5°C 18.8°F-7.3°C 34% 6.0 mph S9.7 kmh S 7.0 mph11.3 kmh 30.52 in1033.5 mb 0.00 in0.0 mm 0.00 in0.0 mm 0.00 in0.0 mm
12:50 PM 45.0°F7.2°C 18.3°F-7.6°C 34% 2.0 mph S3.2 kmh S 7.0 mph11.3 kmh 30.53 in1033.9 mb 0.00 in0.0 mm 0.00 in0.0 mm 0.00 in0.0 mm
12:45 PM 44.9°F7.2°C 19.6°F-6.9°C 36% Calm Calm -- 30.53 in1033.9 mb 0.00 in0.0 mm 0.00 in0.0 mm 0.00 in0.0 mm
12:40 PM 44.7°F7.1°C 18.7°F-7.4°C 35% 4.0 mph SSW6.4 kmh SSW -- 30.53 in1033.9 mb 0.00 in0.0 mm 0.00 in0.0 mm 0.00 in0.0 mm
12:35 PM 44.8°F7.1°C 18.2°F-7.7°C 34% 5.0 mph S8.0 kmh S -- 30.53 in1033.9 mb 0.00 in0.0 mm 0.00 in0.0 mm 0.00 in0.0 mm
12:30 PM 44.6°F7.0°C 17.3°F-8.2°C 33% 4.0 mph S6.4 kmh S -- 30.53 in1033.9 mb 0.00 in0.0 mm 0.00 in0.0 mm 0.00 in0.0 mm
12:25 PM 44.6°F7.0°C 18.7°F-7.4°C 35% 2.0 mph SSW3.2 kmh SSW -- 30.53 in1033.9 mb 0.00 in0.0 mm 0.00 in0.0 mm 0.00 in0.0 mm
12:20 PM 45.0°F7.2°C 19.0°F-7.2°C 35% 4.0 mph S6.4 kmh S -- 30.54 in1034.2 mb 0.00 in0.0 mm 0.00 in0.0 mm 0.00 in0.0 mm
12:15 PM 44.8°F7.1°C 20.1°F-6.6°C 37% Calm Calm -- 30.54 in1034.2 mb 0.00 in0.0 mm 0.00 in0.0 mm 0.00 in0.0 mm
12:10 PM 45.1°F7.3°C 19.8°F-6.8°C 36% Calm Calm -- 30.54 in1034.2 mb 0.00 in0.0 mm 0.00 in0.0 mm 0.00 in0.0 mm
12:05 PM 44.3°F6.8°C 19.7°F-6.8°C 37% Calm Calm 5.0 mph8.0 kmh 30.54 in1034.2 mb 0.00 in0.0 mm 0.00 in0.0 mm 0.00 in0.0 mm
12:00 PM 44.0°F6.7°C 18.1°F-7.7°C 35% Calm Calm 5.0 mph8.0 kmh 30.54 in1034.2 mb 0.00 in0.0 mm 0.00 in0.0 mm 0.00 in0.0 mm
11:55 AM 43.5°F6.4°C 19.0°F-7.2°C 37% Calm Calm -- 30.54 in1034.2 mb 0.00 in0.0 mm 0.00 in0.0 mm 0.00 in0.0 mm
11:50 AM 43.4°F6.3°C 19.5°F-6.9°C 38% 1.0 mph SW1.6 kmh SW -- 30.55 in1034.5 mb 0.00 in0.0 mm 0.00 in0.0 mm 0.00 in0.0 mm
11:45 AM 43.2°F6.2°C 19.9°F-6.7°C 39% Calm Calm -- 30.55 in1034.5 mb 0.00 in0.0 mm 0.00 in0.0 mm 0.00 in0.0 mm
11:40 AM 42.9°F6.1°C 20.3°F-6.5°C 40% 1.0 mph W1.6 kmh W -- 30.55 in1034.5 mb 0.00 in0.0 mm 0.00 in0.0 mm 0.00 in0.0 mm
11:35 AM 42.8°F6.0°C 20.2°F-6.6°C 40% Calm Calm -- 30.55 in1034.5 mb 0.00 in0.0 mm 0.00 in0.0 mm 0.00 in0.0 mm
11:30 AM 42.5°F5.8°C 19.9°F-6.7°C 40% Calm Calm -- 30.55 in1034.5 mb 0.00 in0.0 mm 0.00 in0.0 mm 0.00 in0.0 mm
11:25 AM 42.0°F5.6°C 21.1°F-6.1°C 43% Calm Calm -- 30.56 in1034.9 mb 0.00 in0.0 mm 0.00 in0.0 mm 0.00 in0.0 mm
11:20 AM 41.6°F5.3°C 20.8°F-6.2°C 43% Calm Calm -- 30.56 in1034.9 mb 0.00 in0.0 mm 0.00 in0.0 mm 0.00 in0.0 mm
11:15 AM 41.5°F5.3°C 20.7°F-6.3°C 43% Calm Calm 4.0 mph6.4 kmh 30.56 in1034.9 mb 0.00 in0.0 mm 0.00 in0.0 mm 0.00 in0.0 mm
11:10 AM 41.5°F5.3°C 21.8°F-5.7°C 45% Calm Calm 4.0 mph6.4 kmh 30.56 in1034.9 mb 0.00 in0.0 mm 0.00 in0.0 mm 0.00 in0.0 mm
11:05 AM 41.0°F5.0°C 21.3°F-5.9°C 45% Calm Calm -- 30.56 in1034.9 mb 0.00 in0.0 mm 0.00 in0.0 mm 0.00 in0.0 mm
11:00 AM 41.1°F5.1°C 20.9°F-6.2°C 44% 2.0 mph W3.2 kmh W -- 30.56 in1034.9 mb 0.00 in0.0 mm 0.00 in0.0 mm 0.00 in0.0 mm
10:55 AM 41.0°F5.0°C 21.8°F-5.7°C 46% Calm Calm -- 30.56 in1034.9 mb 0.00 in0.0 mm 0.00 in0.0 mm 0.00 in0.0 mm
10:50 AM 40.4°F4.7°C 21.3°F-5.9°C 46% Calm Calm -- 30.56 in1034.9 mb 0.00 in0.0 mm 0.00 in0.0 mm 0.00 in0.0 mm
10:45 AM 40.3°F4.6°C 22.2°F-5.4°C 48% 1.0 mph W1.6 kmh W -- 30.56 in1034.9 mb 0.00 in0.0 mm 0.00 in0.0 mm 0.00 in0.0 mm
10:40 AM 40.1°F4.5°C 22.0°F-5.6°C 48% Calm Calm -- 30.56 in1034.9 mb 0.00 in0.0 mm 0.00 in0.0 mm 0.00 in0.0 mm
10:35 AM 39.3°F4.1°C 22.2°F-5.4°C 50% Calm Calm -- 30.57 in1035.2 mb 0.00 in0.0 mm 0.00 in0.0 mm 0.00 in0.0 mm
10:30 AM 38.8°F3.8°C 22.2°F-5.4°C 51% Calm Calm -- 30.56 in1034.9 mb 0.00 in0.0 mm 0.00 in0.0 mm 0.00 in0.0 mm
10:25 AM 38.4°F3.6°C 21.9°F-5.6°C 51% Calm Calm 2.0 mph3.2 kmh 30.56 in1034.9 mb 0.00 in0.0 mm 0.00 in0.0 mm 0.00 in0.0 mm
10:20 AM 38.0°F3.3°C 22.4°F-5.3°C 53% Calm Calm 2.0 mph3.2 kmh 30.57 in1035.2 mb 0.00 in0.0 mm 0.00 in0.0 mm 0.00 in0.0 mm
10:15 AM 37.8°F3.2°C 22.7°F-5.2°C 54% 1.0 mph WSW1.6 kmh WSW -- 30.57 in1035.2 mb 0.00 in0.0 mm 0.00 in0.0 mm 0.00 in0.0 mm
10:10 AM 37.3°F2.9°C 22.6°F-5.2°C 55% Calm Calm -- 30.57 in1035.2 mb 0.00 in0.0 mm 0.00 in0.0 mm 0.00 in0.0 mm
10:05 AM 36.7°F2.6°C 21.6°F-5.8°C 54% Calm Calm -- 30.57 in1035.2 mb 0.00 in0.0 mm 0.00 in0.0 mm 0.00 in0.0 mm
10:00 AM 36.4°F2.4°C 22.2°F-5.4°C 56% Calm Calm -- 30.57 in1035.2 mb 0.00 in0.0 mm 0.00 in0.0 mm 0.00 in0.0 mm
09:55 AM 35.8°F2.1°C 22.1°F-5.5°C 57% 1.0 mph W1.6 kmh W -- 30.57 in1035.2 mb 0.00 in0.0 mm 0.00 in0.0 mm 0.00 in0.0 mm
09:50 AM 35.3°F1.8°C 22.0°F-5.6°C 58% Calm Calm -- 30.57 in1035.2 mb 0.00 in0.0 mm 0.00 in0.0 mm 0.00 in0.0 mm
09:45 AM 34.8°F1.6°C 22.0°F-5.6°C 59% Calm Calm -- 30.57 in1035.2 mb 0.00 in0.0 mm 0.00 in0.0 mm 0.00 in0.0 mm
09:40 AM 34.4°F1.3°C 22.0°F-5.6°C 60% Calm Calm -- 30.57 in1035.2 mb 0.00 in0.0 mm 0.00 in0.0 mm 0.00 in0.0 mm
09:35 AM 33.9°F1.1°C 21.9°F-5.6°C 61% Calm Calm 1.0 mph1.6 kmh 30.57 in1035.2 mb 0.00 in0.0 mm 0.00 in0.0 mm 0.00 in0.0 mm
09:30 AM 33.5°F0.8°C 21.9°F-5.6°C 62% 1.0 mph WSW1.6 kmh WSW 1.0 mph1.6 kmh 30.56 in1034.9 mb 0.00 in0.0 mm 0.00 in0.0 mm 0.00 in0.0 mm
09:25 AM 33.2°F0.7°C 22.4°F-5.3°C 64% Calm Calm -- 30.57 in1035.2 mb 0.00 in0.0 mm 0.00 in0.0 mm 0.00 in0.0 mm
09:20 AM 32.9°F0.5°C 23.5°F-4.7°C 68% Calm Calm -- 30.56 in1034.9 mb 0.00 in0.0 mm 0.00 in0.0 mm 0.00 in0.0 mm
09:15 AM 32.4°F0.2°C 24.7°F-4.1°C 73% Calm Calm -- 30.56 in1034.9 mb 0.00 in0.0 mm 0.00 in0.0 mm 0.00 in0.0 mm
09:10 AM 32.1°F0.1°C 25.1°F-3.8°C 75% Calm Calm -- 30.56 in1034.9 mb 0.00 in0.0 mm 0.00 in0.0 mm 0.00 in0.0 mm
09:05 AM 31.5°F-0.3°C 24.8°F-4.0°C 76% Calm Calm -- 30.56 in1034.9 mb 0.00 in0.0 mm 0.00 in0.0 mm 0.00 in0.0 mm
09:00 AM 31.0°F-0.6°C 24.3°F-4.3°C 76% Calm Calm -- 30.56 in1034.9 mb 0.00 in0.0 mm 0.00 in0.0 mm 0.00 in0.0 mm
08:55 AM 30.5°F-0.8°C 24.2°F-4.3°C 77% Calm Calm -- 30.56 in1034.9 mb 0.00 in0.0 mm 0.00 in0.0 mm 0.00 in0.0 mm
08:50 AM 29.8°F-1.2°C 24.1°F-4.4°C 79% Calm Calm -- 30.56 in1034.9 mb 0.00 in0.0 mm 0.00 in0.0 mm 0.00 in0.0 mm
08:45 AM 29.3°F-1.5°C 23.9°F-4.5°C 80% Calm Calm -- 30.56 in1034.9 mb 0.00 in0.0 mm 0.00 in0.0 mm 0.00 in0.0 mm
08:40 AM 28.8°F-1.8°C 23.7°F-4.6°C 81% Calm Calm -- 30.55 in1034.5 mb 0.00 in0.0 mm 0.00 in0.0 mm 0.00 in0.0 mm
08:35 AM 28.1°F-2.2°C 23.3°F-4.8°C 82% Calm Calm -- 30.55 in1034.5 mb 0.00 in0.0 mm 0.00 in0.0 mm 0.00 in0.0 mm
08:30 AM 27.5°F-2.5°C 23.3°F-4.8°C 84% Calm Calm -- 30.55 in1034.5 mb 0.00 in0.0 mm 0.00 in0.0 mm 0.00 in0.0 mm
08:25 AM 26.7°F-2.9°C 22.5°F-5.3°C 84% Calm Calm -- 30.55 in1034.5 mb 0.00 in0.0 mm 0.00 in0.0 mm 0.00 in0.0 mm
08:20 AM 26.0°F-3.3°C 21.8°F-5.7°C 84% Calm Calm -- 30.55 in1034.5 mb 0.00 in0.0 mm 0.00 in0.0 mm 0.00 in0.0 mm
08:15 AM 25.4°F-3.7°C 21.3°F-5.9°C 84% Calm Calm -- 30.55 in1034.5 mb 0.00 in0.0 mm 0.00 in0.0 mm 0.00 in0.0 mm
08:10 AM 24.9°F-3.9°C 21.0°F-6.1°C 85% Calm Calm -- 30.55 in1034.5 mb 0.00 in0.0 mm 0.00 in0.0 mm 0.00 in0.0 mm
08:05 AM 24.6°F-4.1°C 20.7°F-6.3°C 85% Calm Calm -- 30.54 in1034.2 mb 0.00 in0.0 mm 0.00 in0.0 mm 0.00 in0.0 mm
08:00 AM 24.2°F-4.3°C 20.4°F-6.4°C 85% Calm Calm -- 30.54 in1034.2 mb 0.00 in0.0 mm 0.00 in0.0 mm 0.00 in0.0 mm
07:55 AM 23.7°F-4.6°C 19.9°F-6.7°C 85% Calm Calm -- 30.54 in1034.2 mb 0.00 in0.0 mm 0.00 in0.0 mm 0.00 in0.0 mm
07:50 AM 23.4°F-4.8°C 19.6°F-6.9°C 85% Calm Calm -- 30.54 in1034.2 mb 0.00 in0.0 mm 0.00 in0.0 mm 0.00 in0.0 mm
07:45 AM 23.3°F-4.8°C 19.2°F-7.1°C 84% Calm Calm -- 30.54 in1034.2 mb 0.00 in0.0 mm 0.00 in0.0 mm 0.00 in0.0 mm
07:40 AM 23.1°F-4.9°C 19.0°F-7.2°C 84% Calm Calm -- 30.54 in1034.2 mb 0.00 in0.0 mm 0.00 in0.0 mm 0.00 in0.0 mm
07:35 AM 22.9°F-5.1°C 18.8°F-7.3°C 84% Calm Calm -- 30.54 in1034.2 mb 0.00 in0.0 mm 0.00 in0.0 mm 0.00 in0.0 mm
07:30 AM 22.8°F-5.1°C 18.7°F-7.4°C 84% Calm Calm -- 30.53 in1033.9 mb 0.00 in0.0 mm 0.00 in0.0 mm 0.00 in0.0 mm
07:25 AM 22.6°F-5.2°C 18.5°F-7.5°C 84% Calm Calm -- 30.53 in1033.9 mb 0.00 in0.0 mm 0.00 in0.0 mm 0.00 in0.0 mm
07:20 AM 22.5°F-5.3°C 18.4°F-7.6°C 84% Calm Calm -- 30.53 in1033.9 mb 0.00 in0.0 mm 0.00 in0.0 mm 0.00 in0.0 mm
07:15 AM 22.5°F-5.3°C 18.4°F-7.6°C 84% Calm Calm -- 30.53 in1033.9 mb 0.00 in0.0 mm 0.00 in0.0 mm 0.00 in0.0 mm
07:10 AM 22.5°F-5.3°C 18.4°F-7.6°C 84% Calm Calm -- 30.53 in1033.9 mb 0.00 in0.0 mm 0.00 in0.0 mm 0.00 in0.0 mm
07:05 AM 22.5°F-5.3°C 18.4°F-7.6°C 84% Calm Calm -- 30.53 in1033.9 mb 0.00 in0.0 mm 0.00 in0.0 mm 0.00 in0.0 mm
07:00 AM 22.4°F-5.3°C 18.3°F-7.6°C 84% Calm Calm -- 30.52 in1033.5 mb 0.00 in0.0 mm 0.00 in0.0 mm 0.00 in0.0 mm
06:55 AM 22.4°F-5.3°C 18.3°F-7.6°C 84% Calm Calm -- 30.52 in1033.5 mb 0.00 in0.0 mm 0.00 in0.0 mm 0.00 in0.0 mm
06:50 AM 22.2°F-5.4°C 18.1°F-7.7°C 84% Calm Calm -- 30.52 in1033.5 mb 0.00 in0.0 mm 0.00 in0.0 mm 0.00 in0.0 mm
06:45 AM 22.2°F-5.4°C 18.1°F-7.7°C 84% Calm Calm -- 30.52 in1033.5 mb 0.00 in0.0 mm 0.00 in0.0 mm 0.00 in0.0 mm
06:40 AM 22.2°F-5.4°C 18.1°F-7.7°C 84% Calm Calm -- 30.52 in1033.5 mb 0.00 in0.0 mm 0.00 in0.0 mm 0.00 in0.0 mm
06:35 AM 22.1°F-5.5°C 18.0°F-7.8°C 84% Calm Calm -- 30.52 in1033.5 mb 0.00 in0.0 mm 0.00 in0.0 mm 0.00 in0.0 mm
06:30 AM 22.1°F-5.5°C 18.0°F-7.8°C 84% Calm Calm -- 30.52 in1033.5 mb 0.00 in0.0 mm 0.00 in0.0 mm 0.00 in0.0 mm
06:25 AM 22.2°F-5.4°C 18.1°F-7.7°C 84% Calm Calm -- 30.52 in1033.5 mb 0.00 in0.0 mm 0.00 in0.0 mm 0.00 in0.0 mm
06:20 AM 22.2°F-5.4°C 17.8°F-7.9°C 83% Calm Calm -- 30.52 in1033.5 mb 0.00 in0.0 mm 0.00 in0.0 mm 0.00 in0.0 mm
06:15 AM 22.3°F-5.4°C 18.2°F-7.7°C 84% Calm Calm -- 30.52 in1033.5 mb 0.00 in0.0 mm 0.00 in0.0 mm 0.00 in0.0 mm
06:10 AM 22.3°F-5.4°C 18.2°F-7.7°C 84% Calm Calm -- 30.52 in1033.5 mb 0.00 in0.0 mm 0.00 in0.0 mm 0.00 in0.0 mm
06:05 AM 22.4°F-5.3°C 18.3°F-7.6°C 84% Calm Calm -- 30.52 in1033.5 mb 0.00 in0.0 mm 0.00 in0.0 mm 0.00 in0.0 mm
06:00 AM 22.4°F-5.3°C 18.3°F-7.6°C 84% Calm Calm -- 30.52 in1033.5 mb 0.00 in0.0 mm 0.00 in0.0 mm 0.00 in0.0 mm
05:55 AM 22.5°F-5.3°C 18.4°F-7.6°C 84% Calm Calm -- 30.52 in1033.5 mb 0.00 in0.0 mm 0.00 in0.0 mm 0.00 in0.0 mm
05:50 AM 22.4°F-5.3°C 18.3°F-7.6°C 84% Calm Calm -- 30.52 in1033.5 mb 0.00 in0.0 mm 0.00 in0.0 mm 0.00 in0.0 mm
05:45 AM 22.3°F-5.4°C 15.0°F-9.4°C 73% Calm Calm -- 30.52 in1033.5 mb 0.00 in0.0 mm 0.00 in0.0 mm 0.00 in0.0 mm
05:40 AM 23.9°F-4.5°C 15.6°F-9.1°C 70% Calm Calm -- 30.52 in1033.5 mb 0.00 in0.0 mm 0.00 in0.0 mm 0.00 in0.0 mm
05:35 AM 24.3°F-4.3°C 15.3°F-9.3°C 68% Calm Calm -- 30.52 in1033.5 mb 0.00 in0.0 mm 0.00 in0.0 mm 0.00 in0.0 mm
05:30 AM 24.1°F-4.4°C 15.8°F-9.0°C 70% Calm Calm -- 30.51 in1033.2 mb 0.00 in0.0 mm 0.00 in0.0 mm 0.00 in0.0 mm
05:25 AM 23.3°F-4.8°C 15.3°F-9.3°C 71% Calm Calm -- 30.51 in1033.2 mb 0.00 in0.0 mm 0.00 in0.0 mm 0.00 in0.0 mm
05:20 AM 22.7°F-5.2°C 14.4°F-9.8°C 70% Calm Calm -- 30.51 in1033.2 mb 0.00 in0.0 mm 0.00 in0.0 mm 0.00 in0.0 mm
05:15 AM 23.3°F-4.8°C 15.0°F-9.4°C 70% Calm Calm -- 30.51 in1033.2 mb 0.00 in0.0 mm 0.00 in0.0 mm 0.00 in0.0 mm
05:10 AM 23.6°F-4.7°C 15.9°F-8.9°C 72% Calm Calm -- 30.51 in1033.2 mb 0.00 in0.0 mm 0.00 in0.0 mm 0.00 in0.0 mm
05:05 AM 23.4°F-4.8°C 16.0°F-8.9°C 73% Calm Calm -- 30.51 in1033.2 mb 0.00 in0.0 mm 0.00 in0.0 mm 0.00 in0.0 mm
05:00 AM 23.1°F-4.9°C 16.4°F-8.7°C 75% Calm Calm -- 30.51 in1033.2 mb 0.00 in0.0 mm 0.00 in0.0 mm 0.00 in0.0 mm
04:55 AM 22.7°F-5.2°C 16.6°F-8.6°C 77% Calm Calm -- 30.51 in1033.2 mb 0.00 in0.0 mm 0.00 in0.0 mm 0.00 in0.0 mm
04:50 AM 22.9°F-5.1°C 17.1°F-8.3°C 78% Calm Calm -- 30.50 in1032.8 mb 0.00 in0.0 mm 0.00 in0.0 mm 0.00 in0.0 mm
04:45 AM 23.5°F-4.7°C 17.4°F-8.1°C 77% 1.0 mph WNW1.6 kmh WNW -- 30.50 in1032.8 mb 0.00 in0.0 mm 0.00 in0.0 mm 0.00 in0.0 mm
04:40 AM 24.3°F-4.3°C 17.2°F-8.2°C 74% Calm Calm -- 30.50 in1032.8 mb 0.00 in0.0 mm 0.00 in0.0 mm 0.00 in0.0 mm
04:35 AM 24.4°F-4.2°C 16.0°F-8.9°C 70% Calm Calm -- 30.50 in1032.8 mb 0.00 in0.0 mm 0.00 in0.0 mm 0.00 in0.0 mm
04:30 AM 24.4°F-4.2°C 16.4°F-8.7°C 71% Calm Calm -- 30.50 in1032.8 mb 0.00 in0.0 mm 0.00 in0.0 mm 0.00 in0.0 mm
04:25 AM 24.0°F-4.4°C 16.9°F-8.4°C 74% Calm Calm -- 30.50 in1032.8 mb 0.00 in0.0 mm 0.00 in0.0 mm 0.00 in0.0 mm
04:20 AM 24.0°F-4.4°C 16.9°F-8.4°C 74% Calm Calm -- 30.50 in1032.8 mb 0.00 in0.0 mm 0.00 in0.0 mm 0.00 in0.0 mm
04:15 AM 24.5°F-4.2°C 17.4°F-8.1°C 74% Calm Calm -- 30.50 in1032.8 mb 0.00 in0.0 mm 0.00 in0.0 mm 0.00 in0.0 mm
04:10 AM 24.7°F-4.1°C 17.6°F-8.0°C 74% Calm Calm -- 30.50 in1032.8 mb 0.00 in0.0 mm 0.00 in0.0 mm 0.00 in0.0 mm
04:05 AM 24.7°F-4.1°C 17.3°F-8.2°C 73% Calm Calm -- 30.50 in1032.8 mb 0.00 in0.0 mm 0.00 in0.0 mm 0.00 in0.0 mm
04:00 AM 24.6°F-4.1°C 18.4°F-7.6°C 77% Calm Calm -- 30.50 in1032.8 mb 0.00 in0.0 mm 0.00 in0.0 mm 0.00 in0.0 mm
03:55 AM 24.5°F-4.2°C 18.6°F-7.4°C 78% Calm Calm -- 30.50 in1032.8 mb 0.00 in0.0 mm 0.00 in0.0 mm 0.00 in0.0 mm
03:50 AM 24.2°F-4.3°C 18.3°F-7.6°C 78% Calm Calm -- 30.50 in1032.8 mb 0.00 in0.0 mm 0.00 in0.0 mm 0.00 in0.0 mm
03:45 AM 23.9°F-4.5°C 18.4°F-7.6°C 79% Calm Calm -- 30.50 in1032.8 mb 0.00 in0.0 mm 0.00 in0.0 mm 0.00 in0.0 mm
03:40 AM 23.7°F-4.6°C 18.5°F-7.5°C 80% Calm Calm -- 30.50 in1032.8 mb 0.00 in0.0 mm 0.00 in0.0 mm 0.00 in0.0 mm
03:35 AM 23.7°F-4.6°C 18.2°F-7.7°C 79% Calm Calm -- 30.50 in1032.8 mb 0.00 in0.0 mm 0.00 in0.0 mm 0.00 in0.0 mm
03:30 AM 23.8°F-4.6°C 17.7°F-7.9°C 77% Calm Calm -- 30.50 in1032.8 mb 0.00 in0.0 mm 0.00 in0.0 mm 0.00 in0.0 mm
03:25 AM 23.9°F-4.5°C 17.8°F-7.9°C 77% Calm Calm -- 30.49 in1032.5 mb 0.00 in0.0 mm 0.00 in0.0 mm 0.00 in0.0 mm
03:20 AM 24.2°F-4.3°C 17.1°F-8.3°C 74% Calm Calm -- 30.50 in1032.8 mb 0.00 in0.0 mm 0.00 in0.0 mm 0.00 in0.0 mm
03:15 AM 24.4°F-4.2°C 17.6°F-8.0°C 75% Calm Calm -- 30.50 in1032.8 mb 0.00 in0.0 mm 0.00 in0.0 mm 0.00 in0.0 mm
03:10 AM 24.2°F-4.3°C 17.7°F-7.9°C 76% Calm Calm -- 30.50 in1032.8 mb 0.00 in0.0 mm 0.00 in0.0 mm 0.00 in0.0 mm
03:05 AM 24.3°F-4.3°C 18.4°F-7.6°C 78% Calm Calm -- 30.50 in1032.8 mb 0.00 in0.0 mm 0.00 in0.0 mm 0.00 in0.0 mm
03:00 AM 24.5°F-4.2°C 18.3°F-7.6°C 77% Calm Calm -- 30.50 in1032.8 mb 0.00 in0.0 mm 0.00 in0.0 mm 0.00 in0.0 mm
02:55 AM 24.7°F-4.1°C 17.9°F-7.8°C 75% Calm Calm -- 30.49 in1032.5 mb 0.00 in0.0 mm 0.00 in0.0 mm 0.00 in0.0 mm
02:50 AM 24.9°F-3.9°C 17.2°F-8.2°C 72% Calm Calm -- 30.49 in1032.5 mb 0.00 in0.0 mm 0.00 in0.0 mm 0.00 in0.0 mm
02:45 AM 25.1°F-3.8°C 16.7°F-8.5°C 70% Calm Calm -- 30.49 in1032.5 mb 0.00 in0.0 mm 0.00 in0.0 mm 0.00 in0.0 mm
02:40 AM 25.5°F-3.6°C 16.8°F-8.4°C 69% Calm Calm -- 30.49 in1032.5 mb 0.00 in0.0 mm 0.00 in0.0 mm 0.00 in0.0 mm
02:35 AM 25.8°F-3.4°C 16.4°F-8.7°C 67% Calm Calm -- 30.49 in1032.5 mb 0.00 in0.0 mm 0.00 in0.0 mm 0.00 in0.0 mm
02:30 AM 26.3°F-3.2°C 15.8°F-9.0°C 64% Calm Calm -- 30.49 in1032.5 mb 0.00 in0.0 mm 0.00 in0.0 mm 0.00 in0.0 mm
02:25 AM 27.0°F-2.8°C 15.7°F-9.1°C 62% Calm Calm -- 30.49 in1032.5 mb 0.00 in0.0 mm 0.00 in0.0 mm 0.00 in0.0 mm
02:20 AM 27.3°F-2.6°C 15.7°F-9.1°C 61% Calm Calm -- 30.49 in1032.5 mb 0.00 in0.0 mm 0.00 in0.0 mm 0.00 in0.0 mm
02:15 AM 27.4°F-2.6°C 15.7°F-9.1°C 61% Calm Calm -- 30.49 in1032.5 mb 0.00 in0.0 mm 0.00 in0.0 mm 0.00 in0.0 mm
02:10 AM 26.0°F-3.3°C 17.2°F-8.2°C 69% Calm Calm -- 30.48 in1032.2 mb 0.00 in0.0 mm 0.00 in0.0 mm 0.00 in0.0 mm
02:05 AM 26.2°F-3.2°C 17.4°F-8.1°C 69% Calm Calm -- 30.49 in1032.5 mb 0.00 in0.0 mm 0.00 in0.0 mm 0.00 in0.0 mm
02:00 AM 26.6°F-3.0°C 17.5°F-8.1°C 68% Calm Calm -- 30.49 in1032.5 mb 0.00 in0.0 mm 0.00 in0.0 mm 0.00 in0.0 mm
01:55 AM 27.0°F-2.8°C 17.5°F-8.1°C 67% Calm Calm -- 30.49 in1032.5 mb 0.00 in0.0 mm 0.00 in0.0 mm 0.00 in0.0 mm
01:50 AM 27.4°F-2.6°C 17.6°F-8.0°C 66% Calm Calm -- 30.49 in1032.5 mb 0.00 in0.0 mm 0.00 in0.0 mm 0.00 in0.0 mm
01:45 AM 27.8°F-2.3°C 17.9°F-7.8°C 66% Calm Calm -- 30.48 in1032.2 mb 0.00 in0.0 mm 0.00 in0.0 mm 0.00 in0.0 mm
01:40 AM 28.0°F-2.2°C 17.8°F-7.9°C 65% Calm Calm -- 30.48 in1032.2 mb 0.00 in0.0 mm 0.00 in0.0 mm 0.00 in0.0 mm
01:35 AM 28.1°F-2.2°C 17.9°F-7.8°C 65% Calm Calm -- 30.48 in1032.2 mb 0.00 in0.0 mm 0.00 in0.0 mm 0.00 in0.0 mm
01:30 AM 28.2°F-2.1°C 18.0°F-7.8°C 65% Calm Calm -- 30.48 in1032.2 mb 0.00 in0.0 mm 0.00 in0.0 mm 0.00 in0.0 mm
01:25 AM 28.4°F-2.0°C 18.2°F-7.7°C 65% Calm Calm -- 30.48 in1032.2 mb 0.00 in0.0 mm 0.00 in0.0 mm 0.00 in0.0 mm
01:20 AM 28.5°F-1.9°C 18.3°F-7.6°C 65% Calm Calm -- 30.48 in1032.2 mb 0.00 in0.0 mm 0.00 in0.0 mm 0.00 in0.0 mm
01:15 AM 28.6°F-1.9°C 18.0°F-7.8°C 64% Calm Calm -- 30.48 in1032.2 mb 0.00 in0.0 mm 0.00 in0.0 mm 0.00 in0.0 mm
01:10 AM 28.6°F-1.9°C 18.0°F-7.8°C 64% Calm Calm -- 30.48 in1032.2 mb 0.00 in0.0 mm 0.00 in0.0 mm 0.00 in0.0 mm
01:05 AM 28.9°F-1.7°C 17.9°F-7.8°C 63% Calm Calm -- 30.48 in1032.2 mb 0.00 in0.0 mm 0.00 in0.0 mm 0.00 in0.0 mm
01:00 AM 29.1°F-1.6°C 17.7°F-7.9°C 62% Calm Calm -- 30.48 in1032.2 mb 0.00 in0.0 mm 0.00 in0.0 mm 0.00 in0.0 mm
12:55 AM 29.4°F-1.4°C 18.0°F-7.8°C 62% Calm Calm -- 30.48 in1032.2 mb 0.00 in0.0 mm 0.00 in0.0 mm 0.00 in0.0 mm
12:50 AM 29.5°F-1.4°C 17.7°F-7.9°C 61% Calm Calm -- 30.48 in1032.2 mb 0.00 in0.0 mm 0.00 in0.0 mm 0.00 in0.0 mm
12:45 AM 29.5°F-1.4°C 18.1°F-7.7°C 62% Calm Calm -- 30.48 in1032.2 mb 0.00 in0.0 mm 0.00 in0.0 mm 0.00 in0.0 mm
12:40 AM 29.2°F-1.6°C 18.9°F-7.3°C 65% Calm Calm -- 30.48 in1032.2 mb 0.00 in0.0 mm 0.00 in0.0 mm 0.00 in0.0 mm
12:35 AM 29.2°F-1.6°C 19.3°F-7.1°C 66% Calm Calm -- 30.48 in1032.2 mb 0.00 in0.0 mm 0.00 in0.0 mm 0.00 in0.0 mm
12:30 AM 29.2°F-1.6°C 18.9°F-7.3°C 65% Calm Calm -- 30.48 in1032.2 mb 0.00 in0.0 mm 0.00 in0.0 mm 0.00 in0.0 mm
12:25 AM 29.1°F-1.6°C 18.8°F-7.3°C 65% Calm Calm -- 30.48 in1032.2 mb 0.00 in0.0 mm 0.00 in0.0 mm 0.00 in0.0 mm
12:20 AM 28.9°F-1.7°C 19.3°F-7.1°C 67% Calm Calm -- 30.48 in1032.2 mb 0.00 in0.0 mm 0.00 in0.0 mm 0.00 in0.0 mm
12:15 AM 28.8°F-1.8°C 19.6°F-6.9°C 68% Calm Calm -- 30.48 in1032.2 mb 0.00 in0.0 mm 0.00 in0.0 mm 0.00 in0.0 mm
12:10 AM 28.5°F-1.9°C 20.0°F-6.7°C 70% Calm Calm -- 30.48 in1032.2 mb 0.00 in0.0 mm 0.00 in0.0 mm 0.00 in0.0 mm
12:05 AM 28.5°F-1.9°C 20.0°F-6.7°C 70% Calm Calm -- 30.48 in1032.2 mb 0.00 in0.0 mm 0.00 in0.0 mm 0.00 in0.0 mm
12:00 AM 28.2°F-2.1°C 20.0°F-6.7°C 71% Calm Calm -- 30.48 in1032.2 mb 0.00 in0.0 mm 0.00 in0.0 mm 0.00 in0.0 mm